sensor_id;sensor_type;location;lat;lon;timestamp;pressure;altitude;pressure_sealevel;temperature;humidity
39051;BME280;24805;55.852;37.644;2023-10-09T00:01:14;96790.09;;;3.63;70.64
39051;BME280;24805;55.852;37.644;2023-10-09T00:06:16;96808.03;;;3.66;70.73
39051;BME280;24805;55.852;37.644;2023-10-09T00:11:19;96818.13;;;3.69;70.99
39051;BME280;24805;55.852;37.644;2023-10-09T00:16:22;96812.09;;;3.68;70.65
39051;BME280;24805;55.852;37.644;2023-10-09T00:21:37;96830.25;;;3.70;70.54
39051;BME280;24805;55.852;37.644;2023-10-09T00:26:42;96824.41;;;3.74;71.02
39051;BME280;24805;55.852;37.644;2023-10-09T00:31:54;96832.88;;;3.83;70.89
39051;BME280;24805;55.852;37.644;2023-10-09T00:37:28;96853.47;;;3.79;70.50
39051;BME280;24805;55.852;37.644;2023-10-09T00:42:36;96859.28;;;3.81;70.75
39051;BME280;24805;55.852;37.644;2023-10-09T00:47:40;96860.72;;;3.77;70.83
39051;BME280;24805;55.852;37.644;2023-10-09T00:52:48;96877.88;;;3.87;71.00
39051;BME280;24805;55.852;37.644;2023-10-09T00:57:53;96886.94;;;3.77;71.32
39051;BME280;24805;55.852;37.644;2023-10-09T01:03:02;96879.69;;;3.79;71.12
39051;BME280;24805;55.852;37.644;2023-10-09T01:08:22;96892.81;;;3.79;71.55
39051;BME280;24805;55.852;37.644;2023-10-09T01:13:31;96907.50;;;3.80;71.13
39051;BME280;24805;55.852;37.644;2023-10-09T01:18:52;96934.97;;;3.91;71.31
39051;BME280;24805;55.852;37.644;2023-10-09T01:23:55;96932.34;;;3.85;70.82
39051;BME280;24805;55.852;37.644;2023-10-09T01:29:10;96931.13;;;3.87;71.57
39051;BME280;24805;55.852;37.644;2023-10-09T01:34:21;96952.53;;;3.91;71.02
39051;BME280;24805;55.852;37.644;2023-10-09T01:39:27;96956.34;;;3.88;71.06
39051;BME280;24805;55.852;37.644;2023-10-09T01:44:30;96953.94;;;3.87;71.30
39051;BME280;24805;55.852;37.644;2023-10-09T01:49:37;96983.41;;;3.89;71.21
39051;BME280;24805;55.852;37.644;2023-10-09T01:54:45;96986.25;;;3.94;71.61
39051;BME280;24805;55.852;37.644;2023-10-09T01:59:53;96999.75;;;3.91;71.36
39051;BME280;24805;55.852;37.644;2023-10-09T02:05:01;97022.78;;;4.02;71.38
39051;BME280;24805;55.852;37.644;2023-10-09T02:10:26;97016.53;;;3.96;70.78
39051;BME280;24805;55.852;37.644;2023-10-09T02:15:37;97014.72;;;4.03;71.12
39051;BME280;24805;55.852;37.644;2023-10-09T02:26:03;97045.78;;;3.93;70.65
39051;BME280;24805;55.852;37.644;2023-10-09T02:31:11;97048.44;;;4.06;70.96
39051;BME280;24805;55.852;37.644;2023-10-09T02:36:14;97048.19;;;4.01;71.01
39051;BME280;24805;55.852;37.644;2023-10-09T02:41:16;97064.56;;;3.97;70.92
39051;BME280;24805;55.852;37.644;2023-10-09T02:46:19;97070.81;;;4.02;70.64
39051;BME280;24805;55.852;37.644;2023-10-09T02:51:24;97077.88;;;4.02;70.79
39051;BME280;24805;55.852;37.644;2023-10-09T02:56:29;97083.13;;;4.02;70.53
39051;BME280;24805;55.852;37.644;2023-10-09T03:01:50;97087.56;;;4.01;70.66
39051;BME280;24805;55.852;37.644;2023-10-09T03:06:55;97110.59;;;4.06;70.89
39051;BME280;24805;55.852;37.644;2023-10-09T03:12:01;97124.75;;;4.11;70.43
39051;BME280;24805;55.852;37.644;2023-10-09T03:17:05;97127.94;;;4.07;70.09
39051;BME280;24805;55.852;37.644;2023-10-09T03:22:13;97140.91;;;4.15;70.29
39051;BME280;24805;55.852;37.644;2023-10-09T03:27:15;97159.72;;;4.19;70.41
39051;BME280;24805;55.852;37.644;2023-10-09T03:32:18;97159.94;;;4.24;69.90
39051;BME280;24805;55.852;37.644;2023-10-09T03:37:21;97170.66;;;4.29;69.71
39051;BME280;24805;55.852;37.644;2023-10-09T03:42:35;97161.97;;;4.28;69.56
39051;BME280;24805;55.852;37.644;2023-10-09T03:47:38;97184.00;;;4.34;69.50
39051;BME280;24805;55.852;37.644;2023-10-09T03:52:45;97202.56;;;4.32;69.67
39051;BME280;24805;55.852;37.644;2023-10-09T03:57:47;97194.66;;;4.19;69.68
39051;BME280;24805;55.852;37.644;2023-10-09T04:02:49;97210.34;;;4.12;69.47
39051;BME280;24805;55.852;37.644;2023-10-09T04:07:54;97215.03;;;4.17;70.26
39051;BME280;24805;55.852;37.644;2023-10-09T04:13:00;97204.28;;;4.12;70.58
39051;BME280;24805;55.852;37.644;2023-10-09T04:18:02;97212.16;;;4.12;70.26
39051;BME280;24805;55.852;37.644;2023-10-09T04:23:06;97241.47;;;4.15;70.30
39051;BME280;24805;55.852;37.644;2023-10-09T04:28:09;97237.22;;;4.21;70.18
39051;BME280;24805;55.852;37.644;2023-10-09T04:33:22;97258.66;;;4.25;70.41
39051;BME280;24805;55.852;37.644;2023-10-09T04:38:31;97254.59;;;4.22;70.81
39051;BME280;24805;55.852;37.644;2023-10-09T04:43:36;97271.97;;;4.23;69.96
39051;BME280;24805;55.852;37.644;2023-10-09T04:48:45;97273.16;;;4.21;70.22
39051;BME280;24805;55.852;37.644;2023-10-09T04:53:48;97254.75;;;4.14;70.45
39051;BME280;24805;55.852;37.644;2023-10-09T04:59:09;97270.00;;;4.32;70.05
39051;BME280;24805;55.852;37.644;2023-10-09T05:04:11;97293.88;;;4.37;70.09
39051;BME280;24805;55.852;37.644;2023-10-09T05:09:42;97304.22;;;4.45;69.79
39051;BME280;24805;55.852;37.644;2023-10-09T05:14:57;97305.47;;;4.49;70.40
39051;BME280;24805;55.852;37.644;2023-10-09T05:20:14;97309.31;;;4.53;70.05
39051;BME280;24805;55.852;37.644;2023-10-09T05:25:28;97316.63;;;4.58;69.63
39051;BME280;24805;55.852;37.644;2023-10-09T05:30:49;97332.41;;;4.64;69.09
39051;BME280;24805;55.852;37.644;2023-10-09T05:35:57;97344.22;;;4.75;69.29
39051;BME280;24805;55.852;37.644;2023-10-09T05:41:18;97331.91;;;4.82;68.72
39051;BME280;24805;55.852;37.644;2023-10-09T05:46:55;97363.03;;;4.78;69.47
39051;BME280;24805;55.852;37.644;2023-10-09T05:52:16;97378.38;;;4.81;68.81
39051;BME280;24805;55.852;37.644;2023-10-09T05:57:36;97379.28;;;4.95;68.51
39051;BME280;24805;55.852;37.644;2023-10-09T06:02:47;97377.03;;;4.92;68.87
39051;BME280;24805;55.852;37.644;2023-10-09T06:08:08;97391.00;;;4.93;68.89
39051;BME280;24805;55.852;37.644;2023-10-09T06:13:15;97405.19;;;4.98;68.77
39051;BME280;24805;55.852;37.644;2023-10-09T06:18:39;97411.94;;;5.14;69.07
39051;BME280;24805;55.852;37.644;2023-10-09T06:23:45;97412.84;;;5.34;68.36
39051;BME280;24805;55.852;37.644;2023-10-09T06:29:06;97410.06;;;5.49;68.11
39051;BME280;24805;55.852;37.644;2023-10-09T06:34:18;97416.50;;;6.01;69.38
39051;BME280;24805;55.852;37.644;2023-10-09T06:39:20;97426.97;;;5.81;67.09
39051;BME280;24805;55.852;37.644;2023-10-09T06:44:40;97440.59;;;5.91;66.90
39051;BME280;24805;55.852;37.644;2023-10-09T06:50:12;97436.97;;;6.05;66.36
39051;BME280;24805;55.852;37.644;2023-10-09T06:55:27;97433.56;;;6.18;66.04
39051;BME280;24805;55.852;37.644;2023-10-09T07:00:40;97454.47;;;6.39;64.52
39051;BME280;24805;55.852;37.644;2023-10-09T07:06:10;97469.22;;;6.40;65.06
39051;BME280;24805;55.852;37.644;2023-10-09T07:16:44;97478.28;;;6.05;64.87
39051;BME280;24805;55.852;37.644;2023-10-09T07:22:05;97466.44;;;5.81;65.66
39051;BME280;24805;55.852;37.644;2023-10-09T07:27:19;97487.34;;;5.89;65.53
39051;BME280;24805;55.852;37.644;2023-10-09T07:32:41;97506.13;;;5.86;65.53
39051;BME280;24805;55.852;37.644;2023-10-09T07:37:45;97519.97;;;6.01;65.76
39051;BME280;24805;55.852;37.644;2023-10-09T07:42:52;97539.91;;;6.17;65.41
39051;BME280;24805;55.852;37.644;2023-10-09T07:47:54;97544.34;;;6.23;65.82
39051;BME280;24805;55.852;37.644;2023-10-09T07:53:05;97552.47;;;6.28;65.24
39051;BME280;24805;55.852;37.644;2023-10-09T07:58:26;97563.22;;;6.27;65.22
39051;BME280;24805;55.852;37.644;2023-10-09T08:03:28;97544.56;;;6.15;65.46
39051;BME280;24805;55.852;37.644;2023-10-09T08:08:35;97560.00;;;6.31;65.19
39051;BME280;24805;55.852;37.644;2023-10-09T08:13:40;97580.25;;;6.31;65.55
39051;BME280;24805;55.852;37.644;2023-10-09T08:18:51;97586.94;;;6.33;65.67
39051;BME280;24805;55.852;37.644;2023-10-09T08:23:54;97579.63;;;6.29;65.02
39051;BME280;24805;55.852;37.644;2023-10-09T08:28:56;97597.28;;;6.35;66.04
39051;BME280;24805;55.852;37.644;2023-10-09T08:34:17;97601.97;;;6.39;65.22
39051;BME280;24805;55.852;37.644;2023-10-09T08:39:31;97623.22;;;6.38;65.70
39051;BME280;24805;55.852;37.644;2023-10-09T08:44:39;97628.56;;;6.57;64.87
39051;BME280;24805;55.852;37.644;2023-10-09T08:49:46;97635.84;;;6.62;63.87
39051;BME280;24805;55.852;37.644;2023-10-09T08:54:48;97643.41;;;6.72;64.40
39051;BME280;24805;55.852;37.644;2023-10-09T08:59:50;97646.44;;;6.82;64.41
39051;BME280;24805;55.852;37.644;2023-10-09T09:04:52;97653.00;;;7.06;62.96
39051;BME280;24805;55.852;37.644;2023-10-09T09:09:59;97657.50;;;7.25;63.17
39051;BME280;24805;55.852;37.644;2023-10-09T09:15:20;97660.56;;;7.35;62.88
39051;BME280;24805;55.852;37.644;2023-10-09T09:20:25;97657.28;;;7.46;62.75
39051;BME280;24805;55.852;37.644;2023-10-09T09:25:45;97672.09;;;7.60;62.77
39051;BME280;24805;55.852;37.644;2023-10-09T09:30:47;97667.44;;;7.49;61.78
39051;BME280;24805;55.852;37.644;2023-10-09T09:36:00;97685.94;;;7.56;62.01
39051;BME280;24805;55.852;37.644;2023-10-09T09:41:09;97668.06;;;7.38;61.61
39051;BME280;24805;55.852;37.644;2023-10-09T09:46:11;97667.84;;;7.26;61.50
39051;BME280;24805;55.852;37.644;2023-10-09T09:51:15;97687.56;;;7.57;61.54
39051;BME280;24805;55.852;37.644;2023-10-09T09:56:20;97700.31;;;7.80;61.05
39051;BME280;24805;55.852;37.644;2023-10-09T10:01:27;97676.94;;;8.10;60.84
39051;BME280;24805;55.852;37.644;2023-10-09T10:06:32;97715.75;;;8.09;61.10
39051;BME280;24805;55.852;37.644;2023-10-09T10:11:48;97700.50;;;8.18;61.25
39051;BME280;24805;55.852;37.644;2023-10-09T10:17:04;97716.38;;;7.91;60.60
39051;BME280;24805;55.852;37.644;2023-10-09T10:22:24;97720.03;;;7.71;61.61
39051;BME280;24805;55.852;37.644;2023-10-09T10:27:30;97731.56;;;7.30;61.24
39051;BME280;24805;55.852;37.644;2023-10-09T10:32:59;97735.00;;;7.24;62.43
39051;BME280;24805;55.852;37.644;2023-10-09T10:43:27;97742.81;;;6.91;63.00
39051;BME280;24805;55.852;37.644;2023-10-09T10:48:49;97747.41;;;6.76;63.49
39051;BME280;24805;55.852;37.644;2023-10-09T10:53:52;97767.06;;;6.73;63.82
39051;BME280;24805;55.852;37.644;2023-10-09T10:58:59;97768.13;;;6.79;63.50
39051;BME280;24805;55.852;37.644;2023-10-09T11:04:12;97767.50;;;6.83;62.53
39051;BME280;24805;55.852;37.644;2023-10-09T11:09:15;97780.25;;;6.80;62.91
39051;BME280;24805;55.852;37.644;2023-10-09T11:14:24;97792.03;;;6.84;62.96
39051;BME280;24805;55.852;37.644;2023-10-09T11:19:27;97775.59;;;6.82;62.65
39051;BME280;24805;55.852;37.644;2023-10-09T11:24:30;97783.31;;;6.83;62.35
39051;BME280;24805;55.852;37.644;2023-10-09T11:29:48;97800.44;;;7.01;62.15
39051;BME280;24805;55.852;37.644;2023-10-09T11:35:09;97808.22;;;7.15;61.95
39051;BME280;24805;55.852;37.644;2023-10-09T11:40:29;97805.78;;;7.20;61.28
39051;BME280;24805;55.852;37.644;2023-10-09T11:45:36;97819.50;;;7.03;61.15
39051;BME280;24805;55.852;37.644;2023-10-09T11:55:46;97834.75;;;7.07;61.42
39051;BME280;24805;55.852;37.644;2023-10-09T12:00:54;97830.66;;;7.05;61.71
39051;BME280;24805;55.852;37.644;2023-10-09T12:06:21;97849.50;;;6.95;61.98
39051;BME280;24805;55.852;37.644;2023-10-09T12:11:31;97850.06;;;6.90;61.70
39051;BME280;24805;55.852;37.644;2023-10-09T12:16:34;97849.84;;;6.85;62.26
39051;BME280;24805;55.852;37.644;2023-10-09T12:21:36;97860.97;;;6.81;62.30
39051;BME280;24805;55.852;37.644;2023-10-09T12:26:38;97867.25;;;6.80;62.36
39051;BME280;24805;55.852;37.644;2023-10-09T12:31:42;97875.56;;;6.77;62.92
39051;BME280;24805;55.852;37.644;2023-10-09T12:36:47;97884.03;;;6.72;63.59
39051;BME280;24805;55.852;37.644;2023-10-09T12:41:51;97892.69;;;6.66;63.43
39051;BME280;24805;55.852;37.644;2023-10-09T12:46:56;97896.53;;;6.64;62.97
39051;BME280;24805;55.852;37.644;2023-10-09T12:51:59;97887.78;;;6.56;63.85
39051;BME280;24805;55.852;37.644;2023-10-09T12:57:01;97900.53;;;6.60;62.69
39051;BME280;24805;55.852;37.644;2023-10-09T13:02:03;97921.41;;;6.54;63.44
39051;BME280;24805;55.852;37.644;2023-10-09T13:07:07;97906.69;;;6.39;63.64
39051;BME280;24805;55.852;37.644;2023-10-09T13:12:10;97938.16;;;6.26;64.14
39051;BME280;24805;55.852;37.644;2023-10-09T13:17:21;97937.91;;;6.20;64.72
39051;BME280;24805;55.852;37.644;2023-10-09T13:22:24;97938.03;;;6.12;64.72
39051;BME280;24805;55.852;37.644;2023-10-09T13:27:28;97954.22;;;6.09;64.94
39051;BME280;24805;55.852;37.644;2023-10-09T13:32:35;97959.03;;;6.06;64.60
39051;BME280;24805;55.852;37.644;2023-10-09T13:37:38;97969.50;;;5.99;64.96
39051;BME280;24805;55.852;37.644;2023-10-09T13:42:40;97976.75;;;5.82;65.72
39051;BME280;24805;55.852;37.644;2023-10-09T13:47:43;97977.69;;;5.75;65.64
39051;BME280;24805;55.852;37.644;2023-10-09T13:52:47;97985.59;;;5.75;65.34
39051;BME280;24805;55.852;37.644;2023-10-09T13:57:50;97978.72;;;5.59;65.62
39051;BME280;24805;55.852;37.644;2023-10-09T14:02:52;98011.81;;;5.68;66.16
39051;BME280;24805;55.852;37.644;2023-10-09T14:07:54;98017.44;;;5.65;66.64
39051;BME280;24805;55.852;37.644;2023-10-09T14:13:02;98028.50;;;5.61;67.09
39051;BME280;24805;55.852;37.644;2023-10-09T14:18:13;98031.94;;;5.61;66.80
39051;BME280;24805;55.852;37.644;2023-10-09T14:23:16;98027.44;;;5.55;67.23
39051;BME280;24805;55.852;37.644;2023-10-09T14:28:22;98045.22;;;5.53;67.34
39051;BME280;24805;55.852;37.644;2023-10-09T14:33:30;98039.66;;;5.48;67.97
39051;BME280;24805;55.852;37.644;2023-10-09T14:38:38;98044.56;;;5.51;67.83
39051;BME280;24805;55.852;37.644;2023-10-09T14:43:40;98036.22;;;5.47;67.35
39051;BME280;24805;55.852;37.644;2023-10-09T14:48:43;98059.59;;;5.42;67.77
39051;BME280;24805;55.852;37.644;2023-10-09T14:53:48;98070.13;;;5.42;67.72
39051;BME280;24805;55.852;37.644;2023-10-09T14:58:51;98076.22;;;5.43;67.64
39051;BME280;24805;55.852;37.644;2023-10-09T15:03:53;98067.69;;;5.41;67.32
39051;BME280;24805;55.852;37.644;2023-10-09T15:08:57;98063.63;;;5.38;67.28
39051;BME280;24805;55.852;37.644;2023-10-09T15:14:00;98085.47;;;5.39;67.40
39051;BME280;24805;55.852;37.644;2023-10-09T15:19:02;98092.97;;;5.42;67.73
39051;BME280;24805;55.852;37.644;2023-10-09T15:24:05;98101.97;;;5.33;67.62
39051;BME280;24805;55.852;37.644;2023-10-09T15:29:07;98098.41;;;5.26;67.29
39051;BME280;24805;55.852;37.644;2023-10-09T15:34:11;98127.25;;;5.19;67.29
39051;BME280;24805;55.852;37.644;2023-10-09T15:39:14;98130.22;;;5.16;67.19
39051;BME280;24805;55.852;37.644;2023-10-09T15:44:21;98141.09;;;5.13;67.63
39051;BME280;24805;55.852;37.644;2023-10-09T15:49:29;98137.81;;;5.11;67.65
39051;BME280;24805;55.852;37.644;2023-10-09T15:54:35;98136.63;;;5.13;67.09
39051;BME280;24805;55.852;37.644;2023-10-09T15:59:38;98160.94;;;5.15;67.91
39051;BME280;24805;55.852;37.644;2023-10-09T16:04:41;98158.31;;;5.15;67.53
39051;BME280;24805;55.852;37.644;2023-10-09T16:09:43;98154.22;;;5.13;68.11
39051;BME280;24805;55.852;37.644;2023-10-09T16:14:45;98161.63;;;5.09;67.15
39051;BME280;24805;55.852;37.644;2023-10-09T16:19:47;98167.72;;;5.10;67.70
39051;BME280;24805;55.852;37.644;2023-10-09T16:24:50;98157.81;;;4.97;68.16
39051;BME280;24805;55.852;37.644;2023-10-09T16:29:52;98172.16;;;5.09;68.25
39051;BME280;24805;55.852;37.644;2023-10-09T16:34:55;98173.16;;;5.08;68.41
39051;BME280;24805;55.852;37.644;2023-10-09T16:39:57;98192.31;;;5.17;68.41
39051;BME280;24805;55.852;37.644;2023-10-09T16:45:00;98201.13;;;5.24;68.52
39051;BME280;24805;55.852;37.644;2023-10-09T16:50:08;98205.69;;;5.30;68.48
39051;BME280;24805;55.852;37.644;2023-10-09T16:55:14;98215.59;;;5.20;68.75
39051;BME280;24805;55.852;37.644;2023-10-09T17:00:18;98210.81;;;5.24;68.75
39051;BME280;24805;55.852;37.644;2023-10-09T17:05:53;98217.44;;;5.19;68.41
39051;BME280;24805;55.852;37.644;2023-10-09T17:11:00;98225.56;;;5.10;68.03
39051;BME280;24805;55.852;37.644;2023-10-09T17:16:11;98239.34;;;5.12;68.27
39051;BME280;24805;55.852;37.644;2023-10-09T17:21:21;98223.84;;;4.94;68.82
39051;BME280;24805;55.852;37.644;2023-10-09T17:26:26;98227.16;;;4.88;68.66
39051;BME280;24805;55.852;37.644;2023-10-09T17:31:28;98226.50;;;4.86;68.37
39051;BME280;24805;55.852;37.644;2023-10-09T17:36:31;98233.22;;;4.89;68.22
39051;BME280;24805;55.852;37.644;2023-10-09T17:41:33;98236.50;;;4.91;67.68
39051;BME280;24805;55.852;37.644;2023-10-09T17:46:37;98242.59;;;4.91;67.88
39051;BME280;24805;55.852;37.644;2023-10-09T17:51:39;98247.19;;;4.89;67.59
39051;BME280;24805;55.852;37.644;2023-10-09T17:56:41;98236.19;;;4.85;67.43
39051;BME280;24805;55.852;37.644;2023-10-09T18:01:43;98247.19;;;4.89;67.17
39051;BME280;24805;55.852;37.644;2023-10-09T18:06:45;98241.91;;;4.97;66.88
39051;BME280;24805;55.852;37.644;2023-10-09T18:11:51;98255.81;;;5.06;66.88
39051;BME280;24805;55.852;37.644;2023-10-09T18:16:57;98250.84;;;5.11;66.43
39051;BME280;24805;55.852;37.644;2023-10-09T18:21:59;98270.22;;;5.18;66.81
39051;BME280;24805;55.852;37.644;2023-10-09T18:27:02;98267.84;;;5.23;66.05
39051;BME280;24805;55.852;37.644;2023-10-09T18:32:04;98269.16;;;5.27;65.65
39051;BME280;24805;55.852;37.644;2023-10-09T18:37:06;98260.13;;;5.22;65.98
39051;BME280;24805;55.852;37.644;2023-10-09T18:42:09;98276.03;;;5.28;65.18
39051;BME280;24805;55.852;37.644;2023-10-09T18:47:12;98267.84;;;5.23;64.98
39051;BME280;24805;55.852;37.644;2023-10-09T18:52:17;98249.63;;;5.22;65.69
39051;BME280;24805;55.852;37.644;2023-10-09T18:57:19;98267.03;;;5.23;65.67
39051;BME280;24805;55.852;37.644;2023-10-09T19:02:25;98279.53;;;5.20;64.95
39051;BME280;24805;55.852;37.644;2023-10-09T19:07:28;98286.09;;;5.25;64.95
39051;BME280;24805;55.852;37.644;2023-10-09T19:12:30;98285.59;;;5.21;64.99
39051;BME280;24805;55.852;37.644;2023-10-09T19:17:33;98269.59;;;5.08;64.75
39051;BME280;24805;55.852;37.644;2023-10-09T19:22:39;98292.91;;;5.11;64.48
39051;BME280;24805;55.852;37.644;2023-10-09T19:27:51;98302.38;;;5.20;64.57
39051;BME280;24805;55.852;37.644;2023-10-09T19:32:54;98307.03;;;5.18;64.46
39051;BME280;24805;55.852;37.644;2023-10-09T19:37:56;98299.56;;;5.22;64.89
39051;BME280;24805;55.852;37.644;2023-10-09T19:42:59;98311.28;;;5.19;63.79
39051;BME280;24805;55.852;37.644;2023-10-09T19:48:01;98297.75;;;5.22;64.40
39051;BME280;24805;55.852;37.644;2023-10-09T19:53:05;98313.53;;;5.22;63.78
39051;BME280;24805;55.852;37.644;2023-10-09T19:58:07;98308.00;;;5.17;63.84
39051;BME280;24805;55.852;37.644;2023-10-09T20:03:09;98310.09;;;5.22;64.36
39051;BME280;24805;55.852;37.644;2023-10-09T20:08:11;98302.69;;;5.25;63.74
39051;BME280;24805;55.852;37.644;2023-10-09T20:13:14;98300.22;;;5.24;63.92
39051;BME280;24805;55.852;37.644;2023-10-09T20:18:16;98316.00;;;5.24;64.30
39051;BME280;24805;55.852;37.644;2023-10-09T20:23:21;98301.03;;;5.24;63.85
39051;BME280;24805;55.852;37.644;2023-10-09T20:28:25;98299.13;;;5.18;64.12
39051;BME280;24805;55.852;37.644;2023-10-09T20:33:29;98309.47;;;5.19;64.11
39051;BME280;24805;55.852;37.644;2023-10-09T20:38:41;98305.00;;;5.20;63.81
39051;BME280;24805;55.852;37.644;2023-10-09T20:43:44;98311.09;;;5.20;64.45
39051;BME280;24805;55.852;37.644;2023-10-09T20:48:46;98313.38;;;5.24;63.87
39051;BME280;24805;55.852;37.644;2023-10-09T20:53:48;98312.72;;;5.22;63.88
39051;BME280;24805;55.852;37.644;2023-10-09T20:58:50;98313.53;;;5.22;64.14
39051;BME280;24805;55.852;37.644;2023-10-09T21:03:52;98316.19;;;5.22;64.36
39051;BME280;24805;55.852;37.644;2023-10-09T21:08:55;98311.47;;;5.17;64.12
39051;BME280;24805;55.852;37.644;2023-10-09T21:13:57;98316.53;;;5.19;64.23
39051;BME280;24805;55.852;37.644;2023-10-09T21:18:59;98325.06;;;5.21;64.16
39051;BME280;24805;55.852;37.644;2023-10-09T21:24:01;98317.38;;;5.19;64.20
39051;BME280;24805;55.852;37.644;2023-10-09T21:29:03;98323.63;;;5.18;64.01
39051;BME280;24805;55.852;37.644;2023-10-09T21:34:06;98327.56;;;5.14;63.70
39051;BME280;24805;55.852;37.644;2023-10-09T21:39:08;98332.00;;;5.14;63.46
39051;BME280;24805;55.852;37.644;2023-10-09T21:44:12;98322.97;;;5.16;63.32
39051;BME280;24805;55.852;37.644;2023-10-09T21:49:17;98336.13;;;5.08;63.01
39051;BME280;24805;55.852;37.644;2023-10-09T21:54:19;98329.88;;;5.09;62.53
39051;BME280;24805;55.852;37.644;2023-10-09T21:59:21;98325.13;;;5.05;62.66
39051;BME280;24805;55.852;37.644;2023-10-09T22:04:23;98336.16;;;5.00;62.71
39051;BME280;24805;55.852;37.644;2023-10-09T22:09:28;98340.09;;;5.04;62.32
39051;BME280;24805;55.852;37.644;2023-10-09T22:14:30;98332.19;;;5.04;62.41
39051;BME280;24805;55.852;37.644;2023-10-09T22:19:33;98347.16;;;5.04;61.80
39051;BME280;24805;55.852;37.644;2023-10-09T22:24:38;98352.25;;;5.05;62.03
39051;BME280;24805;55.852;37.644;2023-10-09T22:29:45;98364.91;;;5.02;62.57
39051;BME280;24805;55.852;37.644;2023-10-09T22:34:47;98359.00;;;5.00;62.27
39051;BME280;24805;55.852;37.644;2023-10-09T22:39:53;98361.16;;;4.96;62.15
39051;BME280;24805;55.852;37.644;2023-10-09T22:44:55;98371.88;;;4.87;61.89
39051;BME280;24805;55.852;37.644;2023-10-09T22:49:58;98371.72;;;4.80;61.93
39051;BME280;24805;55.852;37.644;2023-10-09T22:55:19;98381.06;;;4.82;62.09
39051;BME280;24805;55.852;37.644;2023-10-09T23:00:28;98389.78;;;4.83;62.12
39051;BME280;24805;55.852;37.644;2023-10-09T23:05:49;98364.53;;;4.74;62.06
39051;BME280;24805;55.852;37.644;2023-10-09T23:10:58;98381.22;;;4.81;61.98
39051;BME280;24805;55.852;37.644;2023-10-09T23:16:15;98374.88;;;4.75;61.99
39051;BME280;24805;55.852;37.644;2023-10-09T23:21:21;98383.56;;;4.76;61.68
39051;BME280;24805;55.852;37.644;2023-10-09T23:26:24;98386.19;;;4.76;61.78
39051;BME280;24805;55.852;37.644;2023-10-09T23:31:36;98396.53;;;4.77;61.48
39051;BME280;24805;55.852;37.644;2023-10-09T23:36:48;98394.41;;;4.73;61.55
39051;BME280;24805;55.852;37.644;2023-10-09T23:41:57;98388.50;;;4.71;61.55
39051;BME280;24805;55.852;37.644;2023-10-09T23:47:03;98391.94;;;4.71;60.84
39051;BME280;24805;55.852;37.644;2023-10-09T23:52:18;98391.78;;;4.73;61.15
39051;BME280;24805;55.852;37.644;2023-10-09T23:57:20;98387.34;;;4.73;61.43
